Terminal Aerodrome Forecast
Issued by NWS

Home | Current Version | Previous Version | Text Only | Print | Product List | Glossary On
Versions: 1 2 3 4 5 6 7 8 9 10 11 12 13 14 15 16 17 18 19 20
665
FTUS43 KDLH 201120
TAFBRD
TAF
KBRD 201120Z 2012/2112 18007KT P6SM FEW250
     FM201700 18014G20KT P6SM FEW250
     FM210500 17014G22KT P6SM BKN060
     FM211100 17011G22KT P6SM BKN030=

USA.gov is the U.S. government's official web portal to all federal, state and local government web resources and services.